sensor_id;sensor_type;location;lat;lon;timestamp;temperature;humidity
4727;DHT22;2377;51.734;8.950;2022-11-20T11:04:51;-1.70;99.90
4727;DHT22;2377;51.734;8.950;2022-11-20T11:07:23;-1.70;99.90
4727;DHT22;2377;51.734;8.950;2022-11-20T11:09:54;-1.60;99.90
4727;DHT22;2377;51.734;8.950;2022-11-20T11:12:24;-1.40;99.90
4727;DHT22;2377;51.734;8.950;2022-11-20T11:14:54;-1.10;99.90
4727;DHT22;2377;51.734;8.950;2022-11-20T11:17:25;-1.00;99.90
4727;DHT22;2377;51.734;8.950;2022-11-20T11:19:59;-0.80;99.90
4727;DHT22;2377;51.734;8.950;2022-11-20T11:22:29;-0.50;99.90
4727;DHT22;2377;51.734;8.950;2022-11-20T11:24:57;-0.30;99.90
4727;DHT22;2377;51.734;8.950;2022-11-20T11:27:25;-0.30;99.90
4727;DHT22;2377;51.734;8.950;2022-11-20T11:32:47;-0.10;99.90
4727;DHT22;2377;51.734;8.950;2022-11-20T11:35:27;0.00;99.90
4727;DHT22;2377;51.734;8.950;2022-11-20T11:38:03;0.00;99.90
4727;DHT22;2377;51.734;8.950;2022-11-20T11:40:34;0.00;99.90
4727;DHT22;2377;51.734;8.950;2022-11-20T11:43:06;0.00;99.90
4727;DHT22;2377;51.734;8.950;2022-11-20T11:46:09;0.10;99.90
4727;DHT22;2377;51.734;8.950;2022-11-20T11:48:56;0.10;99.90
4727;DHT22;2377;51.734;8.950;2022-11-20T11:51:28;0.30;99.90
4727;DHT22;2377;51.734;8.950;2022-11-20T11:54:04;0.30;99.90
4727;DHT22;2377;51.734;8.950;2022-11-20T11:56:40;0.40;99.90
4727;DHT22;2377;51.734;8.950;2022-11-20T11:59:12;0.40;99.90
4727;DHT22;2377;51.734;8.950;2022-11-20T12:01:53;0.50;99.90
4727;DHT22;2377;51.734;8.950;2022-11-20T12:04:40;0.50;99.90
4727;DHT22;2377;51.734;8.950;2022-11-20T12:07:15;0.60;99.90
4727;DHT22;2377;51.734;8.950;2022-11-20T12:09:51;0.60;99.90
4727;DHT22;2377;51.734;8.950;2022-11-20T12:12:24;0.70;99.90
4727;DHT22;2377;51.734;8.950;2022-11-20T12:14:55;0.70;99.90
4727;DHT22;2377;51.734;8.950;2022-11-20T12:17:23;0.80;99.90
4727;DHT22;2377;51.734;8.950;2022-11-20T12:19:51;0.80;99.90
4727;DHT22;2377;51.734;8.950;2022-11-20T12:22:27;0.80;99.90
4727;DHT22;2377;51.734;8.950;2022-11-20T12:25:07;0.90;99.90
4727;DHT22;2377;51.734;8.950;2022-11-20T12:31:08;1.00;99.90
4727;DHT22;2377;51.734;8.950;2022-11-20T12:33:57;1.10;99.90
4727;DHT22;2377;51.734;8.950;2022-11-20T12:36:41;1.10;99.90
4727;DHT22;2377;51.734;8.950;2022-11-20T12:39:26;1.10;99.90
4727;DHT22;2377;51.734;8.950;2022-11-20T12:45:47;1.20;99.90
4727;DHT22;2377;51.734;8.950;2022-11-20T12:49:00;1.30;99.90
4727;DHT22;2377;51.734;8.950;2022-11-20T12:51:58;1.30;99.90
4727;DHT22;2377;51.734;8.950;2022-11-20T12:54:50;1.30;99.90
4727;DHT22;2377;51.734;8.950;2022-11-20T12:57:35;1.30;99.90
4727;DHT22;2377;51.734;8.950;2022-11-20T13:00:12;1.30;99.90
4727;DHT22;2377;51.734;8.950;2022-11-20T13:02:58;1.50;99.90
4727;DHT22;2377;51.734;8.950;2022-11-20T13:05:43;1.50;99.90
4727;DHT22;2377;51.734;8.950;2022-11-20T13:08:21;1.50;99.90
4727;DHT22;2377;51.734;8.950;2022-11-20T13:10:57;1.60;99.90
4727;DHT22;2377;51.734;8.950;2022-11-20T13:13:33;1.60;95.20
4727;DHT22;2377;51.734;8.950;2022-11-20T13:16:16;1.50;99.90
4727;DHT22;2377;51.734;8.950;2022-11-20T13:18:47;1.50;99.90
4727;DHT22;2377;51.734;8.950;2022-11-20T13:21:16;1.50;99.90
4727;DHT22;2377;51.734;8.950;2022-11-20T13:23:45;1.50;99.90
4727;DHT22;2377;51.734;8.950;2022-11-20T13:26:19;1.50;97.10
4727;DHT22;2377;51.734;8.950;2022-11-20T13:29:00;1.50;92.80
4727;DHT22;2377;51.734;8.950;2022-11-20T13:31:32;1.50;98.90
4727;DHT22;2377;51.734;8.950;2022-11-20T13:34:04;1.60;99.90
4727;DHT22;2377;51.734;8.950;2022-11-20T13:36:33;1.60;90.70
4727;DHT22;2377;51.734;8.950;2022-11-20T13:39:02;1.60;88.30
4727;DHT22;2377;51.734;8.950;2022-11-20T13:41:33;1.60;99.90
4727;DHT22;2377;51.734;8.950;2022-11-20T13:44:14;1.60;99.90
4727;DHT22;2377;51.734;8.950;2022-11-20T13:46:50;1.60;94.20
4727;DHT22;2377;51.734;8.950;2022-11-20T13:49:20;1.60;99.90
4727;DHT22;2377;51.734;8.950;2022-11-20T13:51:57;1.60;99.90
4727;DHT22;2377;51.734;8.950;2022-11-20T13:55:02;1.70;99.90
4727;DHT22;2377;51.734;8.950;2022-11-20T13:58:04;1.70;92.30
4727;DHT22;2377;51.734;8.950;2022-11-20T14:00:44;1.80;91.40
4727;DHT22;2377;51.734;8.950;2022-11-20T14:03:18;1.80;85.90
4727;DHT22;2377;51.734;8.950;2022-11-20T14:05:51;1.70;99.60
4727;DHT22;2377;51.734;8.950;2022-11-20T14:08:28;1.60;79.30
4727;DHT22;2377;51.734;8.950;2022-11-20T14:11:03;1.60;94.70
4727;DHT22;2377;51.734;8.950;2022-11-20T14:13:54;1.60;91.50
4727;DHT22;2377;51.734;8.950;2022-11-20T14:16:24;1.60;92.80
4727;DHT22;2377;51.734;8.950;2022-11-20T14:18:53;1.60;90.70
4727;DHT22;2377;51.734;8.950;2022-11-20T14:21:25;1.50;90.90
4727;DHT22;2377;51.734;8.950;2022-11-20T14:24:02;1.50;89.00
4727;DHT22;2377;51.734;8.950;2022-11-20T14:26:29;1.50;89.60
4727;DHT22;2377;51.734;8.950;2022-11-20T14:28:59;1.50;97.70
4727;DHT22;2377;51.734;8.950;2022-11-20T14:31:28;1.50;98.80
4727;DHT22;2377;51.734;8.950;2022-11-20T14:33:56;1.50;92.70
4727;DHT22;2377;51.734;8.950;2022-11-20T14:36:24;1.40;99.90
4727;DHT22;2377;51.734;8.950;2022-11-20T14:38:53;1.40;94.80
4727;DHT22;2377;51.734;8.950;2022-11-20T14:41:22;1.30;92.10
4727;DHT22;2377;51.734;8.950;2022-11-20T14:43:53;1.30;99.80
4727;DHT22;2377;51.734;8.950;2022-11-20T14:46:24;1.30;96.30
4727;DHT22;2377;51.734;8.950;2022-11-20T14:48:55;1.30;99.90
4727;DHT22;2377;51.734;8.950;2022-11-20T14:51:30;1.30;98.40
4727;DHT22;2377;51.734;8.950;2022-11-20T14:54:09;1.30;99.90
4727;DHT22;2377;51.734;8.950;2022-11-20T14:56:37;1.30;99.90
4727;DHT22;2377;51.734;8.950;2022-11-20T14:59:04;1.20;99.90
4727;DHT22;2377;51.734;8.950;2022-11-20T15:01:34;1.10;99.90
4727;DHT22;2377;51.734;8.950;2022-11-20T15:04:06;1.10;99.90
4727;DHT22;2377;51.734;8.950;2022-11-20T15:06:36;1.10;99.90
4727;DHT22;2377;51.734;8.950;2022-11-20T15:09:12;1.10;99.90
4727;DHT22;2377;51.734;8.950;2022-11-20T15:11:53;1.10;99.90
4727;DHT22;2377;51.734;8.950;2022-11-20T15:14:22;1.10;99.90
4727;DHT22;2377;51.734;8.950;2022-11-20T15:16:53;1.10;99.90
4727;DHT22;2377;51.734;8.950;2022-11-20T15:19:22;1.10;99.90
4727;DHT22;2377;51.734;8.950;2022-11-20T15:21:50;1.00;99.90
4727;DHT22;2377;51.734;8.950;2022-11-20T15:24:18;1.00;99.90
4727;DHT22;2377;51.734;8.950;2022-11-20T15:26:54;1.00;99.90
4727;DHT22;2377;51.734;8.950;2022-11-20T15:29:23;1.10;99.90
4727;DHT22;2377;51.734;8.950;2022-11-20T15:31:51;1.10;99.90
4727;DHT22;2377;51.734;8.950;2022-11-20T15:34:19;1.10;99.90
4727;DHT22;2377;51.734;8.950;2022-11-20T15:36:46;1.10;99.90
4727;DHT22;2377;51.734;8.950;2022-11-20T15:39:13;1.10;99.90
4727;DHT22;2377;51.734;8.950;2022-11-20T15:41:40;1.20;99.90
4727;DHT22;2377;51.734;8.950;2022-11-20T15:44:07;1.20;99.90
4727;DHT22;2377;51.734;8.950;2022-11-20T15:46:37;1.20;99.90
4727;DHT22;2377;51.734;8.950;2022-11-20T15:49:12;1.20;99.90
4727;DHT22;2377;51.734;8.950;2022-11-20T15:51:42;1.10;99.90
4727;DHT22;2377;51.734;8.950;2022-11-20T15:54:12;1.20;99.90
4727;DHT22;2377;51.734;8.950;2022-11-20T15:56:42;1.20;99.90
4727;DHT22;2377;51.734;8.950;2022-11-20T15:59:10;1.20;99.90
4727;DHT22;2377;51.734;8.950;2022-11-20T16:01:37;1.20;99.90
4727;DHT22;2377;51.734;8.950;2022-11-20T16:04:07;1.20;99.90
4727;DHT22;2377;51.734;8.950;2022-11-20T16:06:38;1.20;99.90
4727;DHT22;2377;51.734;8.950;2022-11-20T16:09:06;1.20;99.90
4727;DHT22;2377;51.734;8.950;2022-11-20T16:11:33;1.20;93.40
4727;DHT22;2377;51.734;8.950;2022-11-20T16:14:02;1.20;99.90
4727;DHT22;2377;51.734;8.950;2022-11-20T16:16:47;1.20;99.90
4727;DHT22;2377;51.734;8.950;2022-11-20T16:19:16;1.20;99.90
4727;DHT22;2377;51.734;8.950;2022-11-20T16:21:43;1.20;99.90
4727;DHT22;2377;51.734;8.950;2022-11-20T16:24:12;1.20;99.90
4727;DHT22;2377;51.734;8.950;2022-11-20T16:26:41;1.20;99.90
4727;DHT22;2377;51.734;8.950;2022-11-20T16:29:08;1.20;99.90
4727;DHT22;2377;51.734;8.950;2022-11-20T16:31:35;1.30;99.60
4727;DHT22;2377;51.734;8.950;2022-11-20T16:34:04;1.20;99.90
4727;DHT22;2377;51.734;8.950;2022-11-20T16:36:34;1.20;98.00
4727;DHT22;2377;51.734;8.950;2022-11-20T16:39:02;1.20;99.90
4727;DHT22;2377;51.734;8.950;2022-11-20T16:41:31;1.20;99.90
4727;DHT22;2377;51.734;8.950;2022-11-20T16:44:01;1.10;99.90
4727;DHT22;2377;51.734;8.950;2022-11-20T16:46:32;1.20;99.90
4727;DHT22;2377;51.734;8.950;2022-11-20T16:49:00;1.20;99.90
4727;DHT22;2377;51.734;8.950;2022-11-20T16:51:30;1.20;99.90
4727;DHT22;2377;51.734;8.950;2022-11-20T16:54:02;1.30;99.90
4727;DHT22;2377;51.734;8.950;2022-11-20T16:56:30;1.20;99.90
4727;DHT22;2377;51.734;8.950;2022-11-20T16:58:58;1.30;99.90
4727;DHT22;2377;51.734;8.950;2022-11-20T17:01:28;1.30;99.90
4727;DHT22;2377;51.734;8.950;2022-11-20T17:03:56;1.30;99.90
4727;DHT22;2377;51.734;8.950;2022-11-20T17:06:26;1.30;99.90
4727;DHT22;2377;51.734;8.950;2022-11-20T17:08:55;1.30;99.90
4727;DHT22;2377;51.734;8.950;2022-11-20T17:11:25;1.30;99.90
4727;DHT22;2377;51.734;8.950;2022-11-20T17:13:54;1.30;99.90
4727;DHT22;2377;51.734;8.950;2022-11-20T17:16:23;1.30;99.90
4727;DHT22;2377;51.734;8.950;2022-11-20T17:18:50;1.30;99.90
4727;DHT22;2377;51.734;8.950;2022-11-20T17:21:20;1.30;99.90
4727;DHT22;2377;51.734;8.950;2022-11-20T17:23:48;1.30;99.90
4727;DHT22;2377;51.734;8.950;2022-11-20T17:26:20;1.30;99.90
4727;DHT22;2377;51.734;8.950;2022-11-20T17:28:54;1.30;99.90
4727;DHT22;2377;51.734;8.950;2022-11-20T17:31:22;1.30;99.90
4727;DHT22;2377;51.734;8.950;2022-11-20T17:33:51;1.30;99.90
4727;DHT22;2377;51.734;8.950;2022-11-20T17:36:18;1.30;99.90
4727;DHT22;2377;51.734;8.950;2022-11-20T17:38:46;1.20;99.90
4727;DHT22;2377;51.734;8.950;2022-11-20T17:41:15;1.30;99.90
4727;DHT22;2377;51.734;8.950;2022-11-20T17:43:44;1.30;99.90
4727;DHT22;2377;51.734;8.950;2022-11-20T17:46:14;1.30;99.90
4727;DHT22;2377;51.734;8.950;2022-11-20T17:48:43;1.30;99.90
4727;DHT22;2377;51.734;8.950;2022-11-20T17:51:12;1.30;99.90
4727;DHT22;2377;51.734;8.950;2022-11-20T17:53:43;1.30;99.90
4727;DHT22;2377;51.734;8.950;2022-11-20T17:56:14;1.30;99.90
4727;DHT22;2377;51.734;8.950;2022-11-20T17:58:59;1.20;99.90
4727;DHT22;2377;51.734;8.950;2022-11-20T18:01:31;1.30;99.90
4727;DHT22;2377;51.734;8.950;2022-11-20T18:03:58;1.20;99.90
4727;DHT22;2377;51.734;8.950;2022-11-20T18:06:26;1.10;99.90
4727;DHT22;2377;51.734;8.950;2022-11-20T18:08:56;1.10;99.90
4727;DHT22;2377;51.734;8.950;2022-11-20T18:11:25;1.10;99.90
4727;DHT22;2377;51.734;8.950;2022-11-20T18:14:01;1.10;99.90
4727;DHT22;2377;51.734;8.950;2022-11-20T18:16:50;1.10;99.90
4727;DHT22;2377;51.734;8.950;2022-11-20T18:19:20;1.10;99.90
4727;DHT22;2377;51.734;8.950;2022-11-20T18:21:52;1.10;99.90
4727;DHT22;2377;51.734;8.950;2022-11-20T18:24:19;1.10;99.90
4727;DHT22;2377;51.734;8.950;2022-11-20T18:26:46;1.10;99.90
4727;DHT22;2377;51.734;8.950;2022-11-20T18:29:13;1.10;99.90
4727;DHT22;2377;51.734;8.950;2022-11-20T18:31:52;1.10;99.90
4727;DHT22;2377;51.734;8.950;2022-11-20T18:34:19;1.10;99.90
4727;DHT22;2377;51.734;8.950;2022-11-20T18:36:47;1.10;99.90
4727;DHT22;2377;51.734;8.950;2022-11-20T18:39:14;1.10;99.90
4727;DHT22;2377;51.734;8.950;2022-11-20T18:41:42;1.10;99.90
4727;DHT22;2377;51.734;8.950;2022-11-20T18:44:28;1.20;99.90
4727;DHT22;2377;51.734;8.950;2022-11-20T18:47:16;1.10;99.90
4727;DHT22;2377;51.734;8.950;2022-11-20T18:49:47;1.10;99.90
4727;DHT22;2377;51.734;8.950;2022-11-20T18:52:17;1.10;99.90
4727;DHT22;2377;51.734;8.950;2022-11-20T18:54:46;1.10;99.90
4727;DHT22;2377;51.734;8.950;2022-11-20T18:57:15;1.10;99.90
4727;DHT22;2377;51.734;8.950;2022-11-20T18:59:43;1.10;99.90
4727;DHT22;2377;51.734;8.950;2022-11-20T19:02:11;1.10;99.90
4727;DHT22;2377;51.734;8.950;2022-11-20T19:04:41;1.20;99.90
4727;DHT22;2377;51.734;8.950;2022-11-20T19:07:09;1.20;99.90
4727;DHT22;2377;51.734;8.950;2022-11-20T19:09:37;1.20;99.90
4727;DHT22;2377;51.734;8.950;2022-11-20T19:12:05;1.20;99.90
4727;DHT22;2377;51.734;8.950;2022-11-20T19:14:34;1.30;99.90
4727;DHT22;2377;51.734;8.950;2022-11-20T19:17:04;1.30;99.90
4727;DHT22;2377;51.734;8.950;2022-11-20T19:19:32;1.30;99.90
4727;DHT22;2377;51.734;8.950;2022-11-20T19:22:01;1.30;99.90
4727;DHT22;2377;51.734;8.950;2022-11-20T19:24:29;1.30;99.90
4727;DHT22;2377;51.734;8.950;2022-11-20T19:26:56;1.30;99.90
4727;DHT22;2377;51.734;8.950;2022-11-20T19:29:25;1.30;99.90
4727;DHT22;2377;51.734;8.950;2022-11-20T19:31:53;1.30;99.90
4727;DHT22;2377;51.734;8.950;2022-11-20T19:34:20;1.30;99.90
4727;DHT22;2377;51.734;8.950;2022-11-20T19:36:48;1.30;99.90
4727;DHT22;2377;51.734;8.950;2022-11-20T19:39:16;1.30;99.90
4727;DHT22;2377;51.734;8.950;2022-11-20T19:41:43;1.30;99.90
4727;DHT22;2377;51.734;8.950;2022-11-20T19:44:12;1.40;99.90
4727;DHT22;2377;51.734;8.950;2022-11-20T19:46:40;1.40;99.90
4727;DHT22;2377;51.734;8.950;2022-11-20T19:49:10;1.30;99.90
4727;DHT22;2377;51.734;8.950;2022-11-20T19:51:50;1.30;99.90
4727;DHT22;2377;51.734;8.950;2022-11-20T19:54:18;1.30;99.90
4727;DHT22;2377;51.734;8.950;2022-11-20T19:56:45;1.30;99.90
4727;DHT22;2377;51.734;8.950;2022-11-20T19:59:14;1.30;99.90
4727;DHT22;2377;51.734;8.950;2022-11-20T20:01:41;1.30;99.90
4727;DHT22;2377;51.734;8.950;2022-11-20T20:04:08;1.30;99.90
4727;DHT22;2377;51.734;8.950;2022-11-20T20:06:36;1.30;99.90
4727;DHT22;2377;51.734;8.950;2022-11-20T20:09:06;1.30;99.90
4727;DHT22;2377;51.734;8.950;2022-11-20T20:11:36;1.30;99.90
4727;DHT22;2377;51.734;8.950;2022-11-20T20:14:25;1.20;99.90
4727;DHT22;2377;51.734;8.950;2022-11-20T20:16:56;1.20;99.90
4727;DHT22;2377;51.734;8.950;2022-11-20T20:19:23;1.20;99.90
4727;DHT22;2377;51.734;8.950;2022-11-20T20:21:50;1.20;99.90
4727;DHT22;2377;51.734;8.950;2022-11-20T20:24:17;1.20;99.90
4727;DHT22;2377;51.734;8.950;2022-11-20T20:26:46;1.20;99.90
4727;DHT22;2377;51.734;8.950;2022-11-20T20:29:13;1.20;99.90
4727;DHT22;2377;51.734;8.950;2022-11-20T20:31:40;1.10;99.90
4727;DHT22;2377;51.734;8.950;2022-11-20T20:34:07;1.10;99.90
4727;DHT22;2377;51.734;8.950;2022-11-20T20:36:34;1.10;99.90
4727;DHT22;2377;51.734;8.950;2022-11-20T20:39:04;1.20;99.90
4727;DHT22;2377;51.734;8.950;2022-11-20T20:41:31;1.20;99.90
4727;DHT22;2377;51.734;8.950;2022-11-20T20:44:00;1.30;99.90
4727;DHT22;2377;51.734;8.950;2022-11-20T20:46:45;1.30;99.90
4727;DHT22;2377;51.734;8.950;2022-11-20T20:49:12;1.30;99.90
4727;DHT22;2377;51.734;8.950;2022-11-20T20:51:39;1.30;99.90
4727;DHT22;2377;51.734;8.950;2022-11-20T20:54:06;1.30;99.90
4727;DHT22;2377;51.734;8.950;2022-11-20T20:56:33;1.30;99.90
4727;DHT22;2377;51.734;8.950;2022-11-20T20:59:02;1.30;99.90
4727;DHT22;2377;51.734;8.950;2022-11-20T21:01:29;1.30;99.90
4727;DHT22;2377;51.734;8.950;2022-11-20T21:03:56;1.30;99.90
4727;DHT22;2377;51.734;8.950;2022-11-20T21:06:24;1.30;99.90
4727;DHT22;2377;51.734;8.950;2022-11-20T21:08:51;1.30;99.90
4727;DHT22;2377;51.734;8.950;2022-11-20T21:11:20;1.30;99.90
4727;DHT22;2377;51.734;8.950;2022-11-20T21:13:47;1.30;99.90
4727;DHT22;2377;51.734;8.950;2022-11-20T21:16:17;1.30;99.90
4727;DHT22;2377;51.734;8.950;2022-11-20T21:18:47;1.40;99.90
4727;DHT22;2377;51.734;8.950;2022-11-20T21:21:15;1.40;99.90
4727;DHT22;2377;51.734;8.950;2022-11-20T21:24:01;1.40;99.90
4727;DHT22;2377;51.734;8.950;2022-11-20T21:26:28;1.30;99.90
4727;DHT22;2377;51.734;8.950;2022-11-20T21:28:56;1.30;99.90
4727;DHT22;2377;51.734;8.950;2022-11-20T21:31:25;1.30;99.90
4727;DHT22;2377;51.734;8.950;2022-11-20T21:33:55;1.40;99.90
4727;DHT22;2377;51.734;8.950;2022-11-20T21:36:23;1.30;99.90
4727;DHT22;2377;51.734;8.950;2022-11-20T21:38:52;1.30;99.90
4727;DHT22;2377;51.734;8.950;2022-11-20T21:41:21;1.20;99.90
4727;DHT22;2377;51.734;8.950;2022-11-20T21:43:49;1.20;99.90
4727;DHT22;2377;51.734;8.950;2022-11-20T21:46:16;1.10;99.90
4727;DHT22;2377;51.734;8.950;2022-11-20T21:48:46;1.10;99.90
4727;DHT22;2377;51.734;8.950;2022-11-20T21:51:14;1.10;99.90
4727;DHT22;2377;51.734;8.950;2022-11-20T21:53:43;1.10;99.90
4727;DHT22;2377;51.734;8.950;2022-11-20T21:56:12;1.10;99.90
4727;DHT22;2377;51.734;8.950;2022-11-20T21:58:41;1.10;99.90
4727;DHT22;2377;51.734;8.950;2022-11-20T22:01:11;1.10;99.90
4727;DHT22;2377;51.734;8.950;2022-11-20T22:03:41;1.10;99.90
4727;DHT22;2377;51.734;8.950;2022-11-20T22:06:09;1.10;99.90
4727;DHT22;2377;51.734;8.950;2022-11-20T22:08:37;1.10;99.90
4727;DHT22;2377;51.734;8.950;2022-11-20T22:11:06;1.10;99.90
4727;DHT22;2377;51.734;8.950;2022-11-20T22:13:34;1.10;99.90
4727;DHT22;2377;51.734;8.950;2022-11-20T22:16:20;1.10;99.90
4727;DHT22;2377;51.734;8.950;2022-11-20T22:18:48;1.10;99.90
4727;DHT22;2377;51.734;8.950;2022-11-20T22:21:20;1.10;99.90
4727;DHT22;2377;51.734;8.950;2022-11-20T22:23:48;1.00;99.90
4727;DHT22;2377;51.734;8.950;2022-11-20T22:26:18;1.00;99.90
4727;DHT22;2377;51.734;8.950;2022-11-20T22:28:46;1.00;99.90
4727;DHT22;2377;51.734;8.950;2022-11-20T22:31:14;1.10;99.90
4727;DHT22;2377;51.734;8.950;2022-11-20T22:33:42;1.10;99.90
4727;DHT22;2377;51.734;8.950;2022-11-20T22:36:12;1.10;99.90
4727;DHT22;2377;51.734;8.950;2022-11-20T22:38:41;1.00;99.90
4727;DHT22;2377;51.734;8.950;2022-11-20T22:41:10;1.10;99.90
4727;DHT22;2377;51.734;8.950;2022-11-20T22:43:39;1.00;99.90
4727;DHT22;2377;51.734;8.950;2022-11-20T22:46:08;1.00;99.90
4727;DHT22;2377;51.734;8.950;2022-11-20T22:48:38;1.00;99.90
4727;DHT22;2377;51.734;8.950;2022-11-20T22:51:07;1.00;99.90
4727;DHT22;2377;51.734;8.950;2022-11-20T22:53:36;1.00;99.90
4727;DHT22;2377;51.734;8.950;2022-11-20T22:56:05;1.00;99.90
4727;DHT22;2377;51.734;8.950;2022-11-20T22:58:33;1.00;99.90
4727;DHT22;2377;51.734;8.950;2022-11-20T23:01:08;1.00;99.90
4727;DHT22;2377;51.734;8.950;2022-11-20T23:03:37;1.00;99.90
4727;DHT22;2377;51.734;8.950;2022-11-20T23:06:05;1.00;99.90
4727;DHT22;2377;51.734;8.950;2022-11-20T23:08:34;1.00;99.90
4727;DHT22;2377;51.734;8.950;2022-11-20T23:11:05;1.00;99.90
4727;DHT22;2377;51.734;8.950;2022-11-20T23:13:34;1.00;99.90
4727;DHT22;2377;51.734;8.950;2022-11-20T23:16:14;1.00;99.90
4727;DHT22;2377;51.734;8.950;2022-11-20T23:18:43;1.00;99.90
4727;DHT22;2377;51.734;8.950;2022-11-20T23:21:12;1.00;99.90
4727;DHT22;2377;51.734;8.950;2022-11-20T23:23:41;1.00;99.90
4727;DHT22;2377;51.734;8.950;2022-11-20T23:26:12;1.00;99.90
4727;DHT22;2377;51.734;8.950;2022-11-20T23:28:41;1.00;99.90
4727;DHT22;2377;51.734;8.950;2022-11-20T23:31:09;1.00;99.90
4727;DHT22;2377;51.734;8.950;2022-11-20T23:33:39;1.00;99.90
4727;DHT22;2377;51.734;8.950;2022-11-20T23:36:09;1.00;99.90
4727;DHT22;2377;51.734;8.950;2022-11-20T23:38:37;1.00;99.90
4727;DHT22;2377;51.734;8.950;2022-11-20T23:41:05;1.00;99.90
4727;DHT22;2377;51.734;8.950;2022-11-20T23:43:34;1.00;99.90
4727;DHT22;2377;51.734;8.950;2022-11-20T23:46:02;1.10;99.90
4727;DHT22;2377;51.734;8.950;2022-11-20T23:48:32;1.00;99.90
4727;DHT22;2377;51.734;8.950;2022-11-20T23:51:01;1.10;99.90
4727;DHT22;2377;51.734;8.950;2022-11-20T23:53:29;1.10;99.90
4727;DHT22;2377;51.734;8.950;2022-11-20T23:55:57;1.00;99.90
4727;DHT22;2377;51.734;8.950;2022-11-20T23:58:30;1.10;99.90
